Time;durP1;ratioP1;P1;durP2;ratioP2;P2;SDS_P1;SDS_P2;PMS_P1;PMS_P2;Temp;Humidity;BMP_temperature;BMP_pressure;BME280_temperature;BME280_humidity;BME280_pressure;Samples;Min_cycle;Max_cycle;Signal;HPM_P1;HPM_P2
2021/08/21 00:01:43;;;;;;;16.53;15.63;;;23.60;97.80;;;;;;2606006;39;20719;-56
2021/08/21 00:04:15;;;;;;;16.57;15.63;;;23.60;98.00;;;;;;2605791;54;20530;-59
2021/08/21 00:06:44;;;;;;;15.93;15.10;;;23.60;97.70;;;;;;2606131;54;20402;-57
2021/08/21 00:09:16;;;;;;;16.00;15.07;;;23.60;97.70;;;;;;2606166;39;20809;-59
2021/08/21 00:11:56;;;;;;;17.07;16.03;;;23.60;97.70;;;;;;2606201;54;20537;-58
2021/08/21 00:14:25;;;;;;;17.10;16.10;;;23.60;97.70;;;;;;2606973;54;20903;-58
2021/08/21 00:16:54;;;;;;;18.13;16.83;;;23.60;97.70;;;;;;2606493;54;21168;-55
2021/08/21 00:19:24;;;;;;;16.70;15.80;;;23.60;97.70;;;;;;2605844;54;20422;-59
2021/08/21 00:21:53;;;;;;;16.93;16.03;;;23.60;97.70;;;;;;2607426;54;20818;-57
2021/08/21 00:24:25;;;;;;;15.93;15.03;;;23.60;97.70;;;;;;2607488;54;21175;-56
2021/08/21 00:26:54;;;;;;;17.07;16.03;;;23.60;97.70;;;;;;2606760;51;20456;-59
2021/08/21 00:29:25;;;;;;;16.63;15.63;;;23.60;97.70;;;;;;2606099;54;20767;-55
2021/08/21 00:31:54;;;;;;;16.40;15.60;;;23.60;97.70;;;;;;2605901;54;20390;-60
2021/08/21 00:34:27;;;;;;;16.67;15.67;;;23.60;97.70;;;;;;2605637;54;20423;-58
2021/08/21 00:36:56;;;;;;;17.67;16.67;;;23.60;97.70;;;;;;2606683;54;20450;-57
2021/08/21 00:39:28;;;;;;;17.20;16.20;;;23.60;97.70;;;;;;2606565;54;20537;-57
2021/08/21 00:41:58;;;;;;;16.90;15.80;;;23.60;97.70;;;;;;2605185;54;20667;-57
2021/08/21 00:44:27;;;;;;;17.07;16.07;;;23.60;97.70;;;;;;2605336;39;20731;-58
2021/08/21 00:47:02;;;;;;;18.23;16.90;;;23.60;97.70;;;;;;2606336;39;20850;-55
2021/08/21 00:49:31;;;;;;;17.10;16.10;;;23.60;97.70;;;;;;2606736;39;20658;-56
2021/08/21 00:52:03;;;;;;;16.97;16.07;;;23.60;97.70;;;;;;2606682;54;20406;-59
2021/08/21 00:54:36;;;;;;;16.50;15.57;;;23.60;97.70;;;;;;2606497;54;20435;-58
2021/08/21 00:57:06;;;;;;;16.67;15.77;;;23.60;97.70;;;;;;2607141;47;21138;-58
2021/08/21 00:59:36;;;;;;;16.40;15.47;;;23.60;97.70;;;;;;2605423;54;20402;-57
2021/08/21 01:02:06;;;;;;;15.77;14.87;;;23.60;97.70;;;;;;2606553;54;20778;-59
2021/08/21 01:04:37;;;;;;;17.00;16.10;;;23.60;97.70;;;;;;2605960;54;20849;-58
2021/08/21 01:07:08;;;;;;;16.17;15.17;;;23.60;97.70;;;;;;2606648;39;20664;-57
2021/08/21 01:09:42;;;;;;;15.97;15.17;;;23.60;97.70;;;;;;2604791;54;20379;-59
2021/08/21 01:12:15;;;;;;;17.00;16.00;;;23.60;97.70;;;;;;2606041;54;20833;-58
2021/08/21 01:14:46;;;;;;;16.87;15.90;;;23.60;97.70;;;;;;2605668;54;20429;-58
2021/08/21 01:17:16;;;;;;;16.50;15.70;;;23.60;97.70;;;;;;2605636;54;20413;-56
2021/08/21 01:19:49;;;;;;;16.43;15.40;;;23.60;97.70;;;;;;2604456;54;20505;-57
2021/08/21 01:22:20;;;;;;;16.30;15.40;;;23.60;97.60;;;;;;2606381;54;20441;-57
2021/08/21 01:24:54;;;;;;;16.77;15.87;;;23.60;97.70;;;;;;2605884;47;20731;-59
2021/08/21 01:27:28;;;;;;;16.90;16.00;;;23.60;97.70;;;;;;2605910;54;20533;-57
2021/08/21 01:30:16;;;;;;;17.00;16.10;;;23.60;97.70;;;;;;2605261;54;20399;-59
2021/08/21 01:33:05;;;;;;;16.93;15.93;;;23.60;97.70;;;;;;2606847;31;20803;-57
2021/08/21 01:35:35;;;;;;;17.40;16.30;;;23.60;97.70;;;;;;2604556;39;20728;-58
2021/08/21 01:38:05;;;;;;;17.07;16.17;;;23.60;97.70;;;;;;2605786;54;20448;-59
2021/08/21 01:40:53;;;;;;;16.93;15.90;;;23.60;97.70;;;;;;2605587;54;20395;-58
2021/08/21 01:43:27;;;;;;;17.77;16.60;;;23.60;97.70;;;;;;2604306;54;20410;-58
2021/08/21 01:45:56;;;;;;;16.63;15.63;;;23.60;97.70;;;;;;2605659;54;20437;-59
2021/08/21 01:48:26;;;;;;;16.87;15.97;;;23.60;97.70;;;;;;2606043;54;20421;-56
2021/08/21 01:50:56;;;;;;;16.53;15.60;;;23.60;97.70;;;;;;2606361;54;20820;-58
2021/08/21 01:53:25;;;;;;;15.90;15.17;;;23.60;97.70;;;;;;2606682;54;20390;-60
2021/08/21 01:55:55;;;;;;;15.57;14.77;;;23.60;97.70;;;;;;2605865;54;20925;-59
2021/08/21 01:58:55;;;;;;;16.80;15.73;;;23.60;97.70;;;;;;2606720;54;20391;-56
2021/08/21 02:01:36;;;;;;;16.97;15.97;;;23.50;97.60;;;;;;2606833;54;20433;-59
2021/08/21 02:04:25;;;;;;;16.90;16.00;;;23.60;97.70;;;;;;2606150;54;20391;-56
2021/08/21 02:06:57;;;;;;;17.10;16.10;;;23.50;97.60;;;;;;2606230;54;20862;-59
2021/08/21 02:09:28;;;;;;;17.30;16.30;;;23.50;97.60;;;;;;2606631;39;20568;-60
2021/08/21 02:11:59;;;;;;;16.40;15.20;;;23.60;97.70;;;;;;2606757;54;20398;-57
2021/08/21 02:14:33;;;;;;;17.23;16.13;;;23.50;97.60;;;;;;2605293;54;20437;-59
2021/08/21 02:17:05;;;;;;;16.00;15.20;;;23.50;97.70;;;;;;2606070;54;20383;-58
2021/08/21 02:19:42;;;;;;;15.57;14.67;;;23.50;97.60;;;;;;2605890;39;20660;-56
2021/08/21 02:22:18;;;;;;;16.17;15.30;;;23.50;97.60;;;;;;2605808;51;20390;-55
2021/08/21 02:24:55;;;;;;;16.70;15.70;;;23.50;97.60;;;;;;2605327;54;20987;-57
2021/08/21 02:27:26;;;;;;;16.50;15.50;;;23.50;97.60;;;;;;2603741;54;20418;-56
2021/08/21 02:29:57;;;;;;;16.13;15.23;;;23.50;97.60;;;;;;2606564;39;20722;-59
2021/08/21 02:32:27;;;;;;;15.77;14.87;;;23.50;97.60;;;;;;2606567;39;20470;-59
2021/08/21 02:34:56;;;;;;;16.07;15.27;;;23.50;97.60;;;;;;2606003;54;20403;-55
2021/08/21 02:37:28;;;;;;;15.80;15.00;;;23.50;97.60;;;;;;2606617;39;20697;-58
2021/08/21 02:39:58;;;;;;;15.87;15.07;;;23.50;97.60;;;;;;2607937;54;20397;-58
2021/08/21 02:42:27;;;;;;;16.33;15.43;;;23.50;97.60;;;;;;2607209;39;20596;-58
2021/08/21 02:44:59;;;;;;;17.53;16.43;;;23.50;97.60;;;;;;2607578;54;20391;-59
2021/08/21 02:47:28;;;;;;;17.67;16.50;;;23.50;97.60;;;;;;2606450;54;20433;-55
2021/08/21 02:49:57;;;;;;;17.03;16.00;;;23.60;97.70;;;;;;2607299;54;20825;-58
2021/08/21 02:52:26;;;;;;;17.00;16.10;;;23.50;97.60;;;;;;2606573;47;20719;-58
2021/08/21 02:54:57;;;;;;;16.60;15.50;;;23.50;97.60;;;;;;2605907;54;20877;-56
2021/08/21 02:57:29;;;;;;;16.00;15.20;;;23.50;97.60;;;;;;2605313;54;20399;-56
2021/08/21 03:00:01;;;;;;;16.80;15.93;;;23.50;97.50;;;;;;2606244;54;20401;-58
2021/08/21 03:02:41;;;;;;;16.40;15.33;;;23.50;97.50;;;;;;2608048;54;20414;-57
2021/08/21 03:05:13;;;;;;;17.07;16.07;;;23.50;97.50;;;;;;2606679;54;20402;-58
2021/08/21 03:07:44;;;;;;;16.90;15.80;;;23.50;97.60;;;;;;2605992;47;20876;-57
2021/08/21 03:10:15;;;;;;;16.57;15.57;;;23.50;97.90;;;;;;2607598;54;20387;-55
2021/08/21 03:12:59;;;;;;;16.00;15.10;;;23.50;97.50;;;;;;2606981;54;20403;-58
2021/08/21 03:15:31;;;;;;;15.93;15.10;;;23.50;97.60;;;;;;2607068;54;20812;-58
2021/08/21 03:18:03;;;;;;;16.57;15.63;;;23.50;97.60;;;;;;2607274;54;20803;-57
2021/08/21 03:20:34;;;;;;;17.60;16.60;;;23.50;97.60;;;;;;2606549;54;20847;-59
2021/08/21 03:23:03;;;;;;;16.13;15.23;;;23.50;97.50;;;;;;2607828;54;20445;-57
2021/08/21 03:25:36;;;;;;;16.03;15.13;;;23.50;97.50;;;;;;2605879;54;20414;-59
2021/08/21 03:28:06;;;;;;;15.77;14.90;;;23.50;97.50;;;;;;2604623;54;20870;-58
2021/08/21 03:30:39;;;;;;;16.03;15.13;;;23.50;97.50;;;;;;2606816;54;20391;-57
2021/08/21 03:33:18;;;;;;;15.83;15.03;;;23.50;97.50;;;;;;2607600;39;20809;-57
2021/08/21 03:35:47;;;;;;;15.67;14.87;;;23.50;97.50;;;;;;2605987;39;20775;-59
2021/08/21 03:38:17;;;;;;;16.30;15.50;;;23.50;97.50;;;;;;2606029;54;20394;-58
2021/08/21 03:40:59;;;;;;;16.73;15.70;;;23.50;97.40;;;;;;2606081;54;20387;-57
2021/08/21 03:43:28;;;;;;;15.90;15.00;;;23.50;97.40;;;;;;2606117;39;20803;-56
2021/08/21 03:46:00;;;;;;;15.07;14.27;;;23.50;97.40;;;;;;2605064;39;20678;-55
2021/08/21 03:48:30;;;;;;;15.90;15.00;;;23.50;97.40;;;;;;2605867;46;20468;-59
2021/08/21 03:51:02;;;;;;;15.03;14.40;;;23.50;97.30;;;;;;2605815;54;21173;-55
2021/08/21 03:53:34;;;;;;;16.80;15.80;;;23.50;97.30;;;;;;2606245;54;20437;-57
2021/08/21 03:56:10;;;;;;;16.97;16.00;;;23.50;97.30;;;;;;2605164;47;20398;-56
2021/08/21 03:58:47;;;;;;;15.43;14.73;;;23.50;97.30;;;;;;2605353;47;20402;-58
2021/08/21 04:01:18;;;;;;;16.77;15.87;;;23.50;97.30;;;;;;2604439;39;20698;-58
2021/08/21 04:03:51;;;;;;;16.33;15.27;;;23.50;97.30;;;;;;2605182;54;20426;-58
2021/08/21 04:06:26;;;;;;;16.03;15.23;;;23.50;97.40;;;;;;2605469;54;20429;-60
2021/08/21 04:08:56;;;;;;;16.27;15.47;;;23.50;97.30;;;;;;2604357;39;20654;-56
2021/08/21 04:11:36;;;;;;;16.77;15.80;;;23.50;97.30;;;;;;2604023;39;20808;-59
2021/08/21 04:14:10;;;;;;;17.40;16.50;;;23.50;97.30;;;;;;2604954;54;20770;-59
2021/08/21 04:16:43;;;;;;;16.00;15.20;;;23.50;97.30;;;;;;2607061;39;20741;-55
2021/08/21 04:19:13;;;;;;;16.77;15.60;;;23.50;97.40;;;;;;2604900;47;20561;-58
2021/08/21 04:21:44;;;;;;;17.00;16.10;;;23.50;97.30;;;;;;2605320;54;20429;-58
2021/08/21 04:24:43;;;;;;;17.00;16.00;;;23.50;97.30;;;;;;2604557;47;20431;-58
2021/08/21 04:27:16;;;;;;;16.37;15.60;;;23.50;97.30;;;;;;2602709;54;20984;-58
2021/08/21 04:29:50;;;;;;;16.53;15.67;;;23.50;97.20;;;;;;2604101;54;20386;-59
2021/08/21 04:32:26;;;;;;;16.23;15.43;;;23.50;97.20;;;;;;2603863;54;20414;-58
2021/08/21 04:34:56;;;;;;;15.70;14.90;;;23.50;97.30;;;;;;2603802;54;20935;-59
2021/08/21 04:37:26;;;;;;;16.13;15.23;;;23.50;97.30;;;;;;2603239;54;20418;-59
2021/08/21 04:39:57;;;;;;;16.50;15.70;;;23.50;97.30;;;;;;2604208;54;21361;-59
2021/08/21 04:42:26;;;;;;;16.00;15.17;;;23.50;97.20;;;;;;2604379;54;20502;-59
2021/08/21 04:44:59;;;;;;;15.00;14.30;;;23.50;97.20;;;;;;2604628;39;20843;-57
2021/08/21 04:47:34;;;;;;;15.77;14.97;;;23.50;97.20;;;;;;2605760;54;20402;-56
2021/08/21 04:50:04;;;;;;;15.67;14.80;;;23.50;97.20;;;;;;2603102;54;20403;-58
2021/08/21 04:52:36;;;;;;;15.17;14.47;;;23.50;97.10;;;;;;2603160;39;20712;-59
2021/08/21 04:55:06;;;;;;;16.00;15.20;;;23.50;97.10;;;;;;2603638;39;20667;-59
2021/08/21 04:57:37;;;;;;;16.37;15.47;;;23.50;97.10;;;;;;2602139;54;20690;-57
2021/08/21 05:00:09;;;;;;;15.10;14.33;;;23.50;97.10;;;;;;2603437;54;20395;-56
2021/08/21 05:03:01;;;;;;;16.23;15.33;;;23.50;97.10;;;;;;2604271;39;20758;-58
2021/08/21 05:05:34;;;;;;;16.00;15.10;;;23.50;96.80;;;;;;2605168;54;20445;-55
2021/08/21 05:08:06;;;;;;;15.07;14.37;;;23.50;96.90;;;;;;2605132;54;20403;-58
2021/08/21 05:10:35;;;;;;;15.50;14.70;;;23.50;96.90;;;;;;2604141;54;20800;-58
2021/08/21 05:13:05;;;;;;;14.93;14.10;;;23.50;96.90;;;;;;2605268;51;20417;-57
2021/08/21 05:15:35;;;;;;;15.27;14.47;;;23.50;97.30;;;;;;2604470;39;20720;-58
2021/08/21 05:18:33;;;;;;;15.63;14.83;;;23.50;97.00;;;;;;2604671;39;20771;-58
2021/08/21 05:21:12;;;;;;;15.10;14.33;;;23.50;97.10;;;;;;2605096;54;20727;-59
2021/08/21 05:23:42;;;;;;;15.23;14.53;;;23.50;97.10;;;;;;2604868;54;20394;-54
2021/08/21 05:26:12;;;;;;;16.03;15.13;;;23.50;97.10;;;;;;2604013;54;20453;-58
2021/08/21 05:28:44;;;;;;;16.10;15.20;;;23.50;97.10;;;;;;2604740;47;20529;-57
2021/08/21 05:31:17;;;;;;;16.60;15.60;;;23.50;97.20;;;;;;2604484;54;21369;-55
2021/08/21 05:33:49;;;;;;;15.53;14.73;;;23.50;97.20;;;;;;2605613;54;20845;-59
2021/08/21 05:36:18;;;;;;;16.23;15.33;;;23.50;97.00;;;;;;2604568;54;20425;-57
2021/08/21 05:38:48;;;;;;;14.63;13.93;;;23.50;97.00;;;;;;2605564;54;20739;-57
2021/08/21 05:41:17;;;;;;;15.47;14.67;;;23.50;97.00;;;;;;2604600;39;21096;-58
2021/08/21 05:43:46;;;;;;;15.97;15.07;;;23.50;97.00;;;;;;2603548;54;20548;-56
2021/08/21 05:46:17;;;;;;;15.77;14.80;;;23.50;97.00;;;;;;2604990;51;20402;-57
2021/08/21 05:48:49;;;;;;;15.63;14.77;;;23.50;97.10;;;;;;2603274;54;20418;-58
2021/08/21 05:51:18;;;;;;;14.97;14.23;;;23.50;97.20;;;;;;2605186;39;20764;-56
2021/08/21 05:53:47;;;;;;;16.10;15.10;;;23.50;97.20;;;;;;2606479;31;20862;-55
2021/08/21 05:56:16;;;;;;;14.60;14.00;;;23.50;97.20;;;;;;2604667;39;20713;-55
2021/08/21 05:58:45;;;;;;;16.07;14.90;;;23.50;97.20;;;;;;2604919;52;20415;-58
2021/08/21 06:01:15;;;;;;;14.77;14.07;;;23.50;97.20;;;;;;2603789;54;20727;-58
2021/08/21 06:03:44;;;;;;;15.60;14.60;;;23.50;97.20;;;;;;2604302;47;20444;-59
2021/08/21 06:06:19;;;;;;;14.93;14.23;;;23.50;97.20;;;;;;2606430;54;20394;-59
2021/08/21 06:08:49;;;;;;;14.67;13.97;;;23.50;97.20;;;;;;2601880;54;20410;-57
2021/08/21 06:11:19;;;;;;;15.27;14.47;;;23.50;97.20;;;;;;2602640;39;20707;-58
2021/08/21 06:13:48;;;;;;;14.63;13.90;;;23.50;97.20;;;;;;2601558;54;20395;-57
2021/08/21 06:16:17;;;;;;;15.67;14.90;;;23.50;97.20;;;;;;2601869;54;20411;-59
2021/08/21 06:18:46;;;;;;;15.70;14.90;;;23.50;97.10;;;;;;2601155;54;20989;-59
2021/08/21 06:21:19;;;;;;;15.00;14.27;;;23.50;97.10;;;;;;2602751;54;21115;-59
2021/08/21 06:23:48;;;;;;;15.27;14.47;;;23.50;97.10;;;;;;2603150;39;20714;-56
2021/08/21 06:26:18;;;;;;;15.10;14.30;;;23.50;97.10;;;;;;2604040;54;20429;-57
2021/08/21 06:28:47;;;;;;;14.97;14.07;;;23.50;97.10;;;;;;2603083;54;20407;-58
2021/08/21 06:31:16;;;;;;;16.13;15.13;;;23.50;97.10;;;;;;2603209;54;20485;-58
2021/08/21 06:33:45;;;;;;;15.60;14.80;;;23.50;97.10;;;;;;2603101;54;20454;-57
2021/08/21 06:36:17;;;;;;;15.80;15.00;;;23.50;97.10;;;;;;2604850;54;21169;-58
2021/08/21 06:38:46;;;;;;;15.37;14.57;;;23.50;97.00;;;;;;2604519;54;20395;-58
2021/08/21 06:41:15;;;;;;;15.83;15.03;;;23.50;97.00;;;;;;2603475;54;20398;-54
2021/08/21 06:43:46;;;;;;;15.80;14.80;;;23.50;97.00;;;;;;2603977;54;20418;-59
2021/08/21 06:46:17;;;;;;;14.80;14.10;;;23.60;97.10;;;;;;2603433;54;20399;-56
2021/08/21 06:48:46;;;;;;;15.83;14.77;;;23.40;96.50;;;;;;2601967;39;20628;-55
2021/08/21 06:51:18;;;;;;;16.07;15.07;;;23.00;96.90;;;;;;2603752;54;20395;-58
2021/08/21 06:53:47;;;;;;;15.93;15.03;;;22.70;97.60;;;;;;2602747;39;20768;-58
2021/08/21 06:56:17;;;;;;;16.10;15.30;;;22.40;98.00;;;;;;2599868;54;20407;-59
2021/08/21 06:58:46;;;;;;;17.07;16.13;;;22.20;98.30;;;;;;2602368;54;20414;-59
2021/08/21 07:01:15;;;;;;;16.67;15.70;;;22.10;98.20;;;;;;2601667;54;20449;-55
2021/08/21 07:03:44;;;;;;;15.43;14.50;;;22.00;98.90;;;;;;2603534;54;20441;-58
2021/08/21 07:06:14;;;;;;;15.63;14.83;;;22.00;99.40;;;;;;2605854;39;20801;-59
2021/08/21 07:08:45;;;;;;;15.50;14.70;;;21.90;99.50;;;;;;2601139;54;20796;-57
2021/08/21 07:11:16;;;;;;;16.20;15.33;;;22.00;99.90;;;;;;2603055;54;20441;-59
2021/08/21 07:13:45;;;;;;;15.77;14.77;;;21.90;99.60;;;;;;2602351;54;20458;-57
2021/08/21 07:16:15;;;;;;;15.37;14.37;;;22.10;99.80;;;;;;2601727;54;20723;-54
2021/08/21 07:18:44;;;;;;;15.10;14.40;;;22.30;99.40;;;;;;2602039;54;20414;-55
2021/08/21 07:21:14;;;;;;;14.77;14.07;;;22.50;99.20;;;;;;2603229;47;20500;-55
2021/08/21 07:23:45;;;;;;;15.43;14.20;;;22.60;98.90;;;;;;2603532;54;20789;-56
2021/08/21 07:26:15;;;;;;;15.33;14.43;;;22.80;98.80;;;;;;2602141;54;20426;-56
2021/08/21 07:28:45;;;;;;;15.00;14.20;;;22.90;98.60;;;;;;2602759;54;20395;-53
2021/08/21 07:31:14;;;;;;;15.83;14.70;;;23.00;98.50;;;;;;2602970;54;20407;-54
2021/08/21 07:33:43;;;;;;;15.67;14.67;;;23.10;98.40;;;;;;2599673;54;21271;-56
2021/08/21 07:36:12;;;;;;;14.93;14.00;;;23.10;98.30;;;;;;2599961;54;20743;-53
2021/08/21 07:38:41;;;;;;;15.40;14.60;;;23.20;98.30;;;;;;2599890;39;20717;-53
2021/08/21 07:41:15;;;;;;;16.23;15.20;;;23.20;98.20;;;;;;2598796;54;20387;-56
2021/08/21 07:43:44;;;;;;;16.03;15.03;;;23.20;98.10;;;;;;2601523;54;20394;-55
2021/08/21 07:46:13;;;;;;;16.30;15.37;;;23.30;98.10;;;;;;2600080;54;20383;-54
2021/08/21 07:48:43;;;;;;;16.27;15.17;;;23.30;98.10;;;;;;2599818;54;20457;-55
2021/08/21 07:51:12;;;;;;;16.27;15.10;;;23.30;98.00;;;;;;2598439;54;20371;-57
2021/08/21 07:53:41;;;;;;;16.57;15.33;;;23.40;98.10;;;;;;2598712;54;20435;-56
2021/08/21 07:56:10;;;;;;;17.40;15.77;;;23.40;98.10;;;;;;2596263;31;20891;-56
2021/08/21 07:58:42;;;;;;;16.43;15.23;;;23.40;98.10;;;;;;2598384;54;20866;-56
2021/08/21 08:01:11;;;;;;;16.10;14.87;;;23.40;98.10;;;;;;2599393;39;20645;-55
2021/08/21 08:03:40;;;;;;;17.33;16.23;;;23.50;98.20;;;;;;2599628;54;20418;-57
2021/08/21 08:06:09;;;;;;;25.03;22.83;;;23.50;98.20;;;;;;2600061;47;20434;-57
2021/08/21 08:08:38;;;;;;;30.60;27.90;;;23.50;98.20;;;;;;2598493;54;20399;-56
2021/08/21 08:11:08;;;;;;;36.23;32.80;;;23.50;98.30;;;;;;2595754;54;20410;-59
2021/08/21 08:13:38;;;;;;;34.97;31.60;;;23.50;98.40;;;;;;2599251;54;20403;-57
2021/08/21 08:16:09;;;;;;;33.63;30.33;;;23.50;98.50;;;;;;2598581;39;20999;-56
2021/08/21 08:18:39;;;;;;;33.83;30.60;;;23.60;98.60;;;;;;2598387;39;20732;-58
2021/08/21 08:21:08;;;;;;;30.10;27.53;;;23.60;98.60;;;;;;2598462;54;20821;-57
2021/08/21 08:23:37;;;;;;;26.60;24.47;;;23.60;98.60;;;;;;2595054;54;20509;-58
2021/08/21 08:26:06;;;;;;;26.83;24.57;;;23.60;98.70;;;;;;2596139;54;20912;-59
2021/08/21 08:28:35;;;;;;;26.37;24.00;;;23.60;98.70;;;;;;2598038;54;20405;-58
2021/08/21 08:31:04;;;;;;;26.17;24.17;;;23.60;98.70;;;;;;2594417;54;20917;-59
2021/08/21 08:33:36;;;;;;;23.53;21.53;;;23.60;98.80;;;;;;2596993;54;20439;-58
2021/08/21 08:36:06;;;;;;;22.00;20.07;;;23.60;98.80;;;;;;2600206;54;20411;-58
2021/08/21 08:38:35;;;;;;;21.30;19.60;;;23.60;98.80;;;;;;2601925;39;20783;-57
2021/08/21 08:41:05;;;;;;;19.30;18.10;;;23.60;98.80;;;;;;2598403;54;20406;-58
2021/08/21 08:43:37;;;;;;;18.07;16.97;;;23.60;98.80;;;;;;2601400;39;20902;-59
2021/08/21 08:46:07;;;;;;;18.93;17.63;;;23.60;98.80;;;;;;2600523;54;20407;-58
2021/08/21 08:48:40;;;;;;;19.03;17.70;;;23.60;98.80;;;;;;2599903;54;20430;-59
2021/08/21 08:51:10;;;;;;;18.13;16.77;;;23.60;98.80;;;;;;2598951;54;20415;-58
2021/08/21 08:53:39;;;;;;;19.03;17.20;;;23.60;98.80;;;;;;2599559;54;20513;-59
2021/08/21 08:56:08;;;;;;;17.63;16.63;;;23.60;98.80;;;;;;2598771;54;20391;-59
2021/08/21 08:58:39;;;;;;;16.23;15.33;;;23.70;98.80;;;;;;2599512;39;21083;-58
2021/08/21 09:01:08;;;;;;;16.40;15.40;;;23.60;98.70;;;;;;2599008;54;20399;-59
2021/08/21 09:03:40;;;;;;;16.90;16.00;;;23.60;98.70;;;;;;2600868;54;20488;-59
2021/08/21 09:06:13;;;;;;;17.50;16.57;;;23.70;98.80;;;;;;2597921;54;20387;-58
2021/08/21 09:08:43;;;;;;;17.27;16.17;;;23.70;98.80;;;;;;2600062;54;20402;-57
2021/08/21 09:11:24;;;;;;;17.17;16.27;;;23.70;98.80;;;;;;2595984;54;20371;-59
2021/08/21 09:13:53;;;;;;;17.23;16.27;;;23.70;98.80;;;;;;2593210;54;20418;-58
2021/08/21 09:16:30;;;;;;;17.37;16.20;;;23.70;98.70;;;;;;2601115;54;20453;-58
2021/08/21 09:19:08;;;;;;;16.97;16.07;;;23.70;98.70;;;;;;2599569;54;20398;-59
2021/08/21 09:22:05;;;;;;;17.60;16.70;;;23.70;98.70;;;;;;2600356;54;20391;-59
2021/08/21 09:24:36;;;;;;;15.73;14.93;;;23.70;98.60;;;;;;2599806;54;20394;-59
2021/08/21 09:27:23;;;;;;;16.67;15.70;;;23.70;98.60;;;;;;2599767;54;20438;-58
2021/08/21 09:30:11;;;;;;;17.30;16.27;;;23.70;98.60;;;;;;2600833;54;20775;-58
2021/08/21 09:32:40;;;;;;;16.40;15.60;;;23.70;98.60;;;;;;2600921;39;20896;-60
2021/08/21 09:35:15;;;;;;;15.53;14.83;;;23.70;98.60;;;;;;2599809;54;20387;-58
2021/08/21 09:37:50;;;;;;;15.87;14.97;;;23.70;98.60;;;;;;2602858;54;20414;-59
2021/08/21 09:40:28;;;;;;;15.60;14.80;;;23.70;98.60;;;;;;2602720;54;20440;-59
2021/08/21 09:42:58;;;;;;;16.10;15.27;;;23.70;98.60;;;;;;2603830;54;20458;-59
2021/08/21 09:45:29;;;;;;;16.37;15.10;;;23.70;98.60;;;;;;2601897;51;20520;-58
2021/08/21 09:48:02;;;;;;;16.43;15.43;;;23.70;98.60;;;;;;2603223;47;20441;-59
2021/08/21 09:50:38;;;;;;;16.37;15.37;;;23.70;98.60;;;;;;2601675;54;20393;-59
2021/08/21 09:53:11;;;;;;;15.63;14.80;;;23.70;98.60;;;;;;2599172;54;20445;-58
2021/08/21 09:55:47;;;;;;;16.43;15.57;;;23.70;98.60;;;;;;2597816;54;20421;-59
2021/08/21 09:58:20;;;;;;;16.23;15.20;;;23.70;98.60;;;;;;2599110;54;20445;-58
2021/08/21 10:00:55;;;;;;;15.60;14.80;;;23.80;98.60;;;;;;2599147;54;20414;-59
2021/08/21 10:03:25;;;;;;;16.20;15.30;;;23.80;98.60;;;;;;2598458;47;20417;-60
2021/08/21 10:05:57;;;;;;;15.70;14.80;;;23.80;98.60;;;;;;2600493;54;20425;-59
2021/08/21 10:08:28;;;;;;;16.13;15.20;;;23.80;98.60;;;;;;2601138;54;21808;-60
2021/08/21 10:10:59;;;;;;;16.80;15.90;;;23.80;98.60;;;;;;2601290;39;20735;-59
2021/08/21 10:13:30;;;;;;;15.87;14.97;;;23.80;98.70;;;;;;2601822;54;20423;-59
2021/08/21 10:16:03;;;;;;;15.40;14.60;;;23.80;98.70;;;;;;2602995;54;20510;-59
2021/08/21 10:18:33;;;;;;;16.37;15.47;;;23.80;98.60;;;;;;2604184;54;20411;-58
2021/08/21 10:21:06;;;;;;;14.80;14.00;;;23.80;98.60;;;;;;2598700;39;21149;-58
2021/08/21 10:23:35;;;;;;;15.77;14.97;;;23.80;98.60;;;;;;2601437;54;20413;-58
2021/08/21 10:26:10;;;;;;;16.93;15.73;;;23.80;98.60;;;;;;2601617;54;20525;-59
2021/08/21 10:28:42;;;;;;;16.70;15.80;;;23.80;98.60;;;;;;2599953;39;20800;-58
2021/08/21 10:31:32;;;;;;;17.00;16.10;;;23.80;98.60;;;;;;2598202;54;20486;-58
2021/08/21 10:34:01;;;;;;;15.50;14.70;;;23.80;98.60;;;;;;2600948;54;20418;-59
2021/08/21 10:36:49;;;;;;;15.87;14.97;;;23.80;98.50;;;;;;2599452;54;20385;-58
2021/08/21 10:39:35;;;;;;;16.10;15.30;;;23.80;98.60;;;;;;2599421;54;20399;-59
2021/08/21 10:42:30;;;;;;;16.50;15.70;;;23.80;98.50;;;;;;2596452;39;20866;-59
2021/08/21 10:45:00;;;;;;;16.63;15.73;;;23.80;98.50;;;;;;2602022;54;21239;-59
2021/08/21 10:47:40;;;;;;;16.93;16.03;;;23.80;98.50;;;;;;2602573;54;20421;-59
2021/08/21 10:50:35;;;;;;;17.27;16.37;;;23.80;98.50;;;;;;2598135;54;20506;-59
2021/08/21 10:53:07;;;;;;;16.17;15.20;;;23.80;98.50;;;;;;2601854;39;20893;-59
2021/08/21 10:55:43;;;;;;;17.33;16.30;;;23.80;98.50;;;;;;2601939;54;20371;-57
2021/08/21 10:58:17;;;;;;;17.57;16.37;;;23.70;98.40;;;;;;2600574;54;20425;-59
2021/08/21 11:01:01;;;;;;;17.00;16.10;;;23.80;98.40;;;;;;2600612;54;20429;-59
2021/08/21 11:03:46;;;;;;;17.47;16.57;;;23.80;98.40;;;;;;2601201;39;20758;-55
2021/08/21 11:06:17;;;;;;;16.57;15.70;;;23.80;98.40;;;;;;2600564;54;20458;-59
2021/08/21 11:09:27;;;;;;;17.40;16.37;;;23.80;98.40;;;;;;2599336;54;21255;-58
2021/08/21 11:11:56;;;;;;;16.67;15.77;;;23.80;98.40;;;;;;2601231;54;20470;-59
2021/08/21 11:14:34;;;;;;;15.90;15.10;;;23.80;98.30;;;;;;2602784;54;20437;-59
2021/08/21 11:17:05;;;;;;;17.10;16.20;;;23.80;98.70;;;;;;2602508;54;20395;-58
2021/08/21 11:19:44;;;;;;;18.07;17.00;;;23.80;98.30;;;;;;2599553;54;20395;-58
2021/08/21 11:22:26;;;;;;;17.70;16.80;;;23.80;98.30;;;;;;2601479;54;20386;-59
2021/08/21 11:25:27;;;;;;;17.27;16.13;;;23.80;98.30;;;;;;2600023;54;20398;-58
2021/08/21 11:28:05;;;;;;;16.90;15.90;;;23.80;98.30;;;;;;2600675;54;20525;-59
2021/08/21 11:30:35;;;;;;;17.23;16.30;;;23.80;98.20;;;;;;2599311;39;21071;-59
2021/08/21 11:33:20;;;;;;;17.50;16.50;;;23.80;98.20;;;;;;2599256;54;21016;-58
2021/08/21 11:35:51;;;;;;;16.67;15.67;;;23.80;98.20;;;;;;2602036;39;20726;-59
2021/08/21 11:38:29;;;;;;;16.70;15.70;;;23.80;98.20;;;;;;2600605;54;20426;-58
2021/08/21 11:41:04;;;;;;;16.43;15.53;;;23.80;98.20;;;;;;2600085;54;20428;-58
2021/08/21 11:43:37;;;;;;;17.00;16.00;;;23.80;98.10;;;;;;2600740;54;20441;-59
2021/08/21 11:46:06;;;;;;;16.90;15.90;;;23.80;98.10;;;;;;2603299;54;20490;-58
2021/08/21 11:48:38;;;;;;;17.03;16.03;;;23.80;98.10;;;;;;2599502;39;21186;-59
2021/08/21 11:51:08;;;;;;;17.97;16.77;;;23.80;98.10;;;;;;2596426;54;21003;-58
2021/08/21 11:53:41;;;;;;;17.90;16.80;;;23.80;98.10;;;;;;2597362;54;20399;-59
2021/08/21 11:56:16;;;;;;;17.00;16.17;;;23.80;98.10;;;;;;2598107;39;20693;-58
2021/08/21 11:58:46;;;;;;;16.97;16.07;;;23.80;98.10;;;;;;2599773;54;20469;-58
2021/08/21 12:01:17;;;;;;;17.47;16.57;;;23.80;98.00;;;;;;2601618;39;21054;-59
2021/08/21 12:06:32;;;;;;;17.73;16.57;;;23.80;98.00;;;;;;2599095;54;20375;-55
2021/08/21 12:09:09;;;;;;;17.17;16.20;;;23.80;98.10;;;;;;2599899;54;21077;-59
2021/08/21 12:11:43;;;;;;;17.43;16.43;;;23.80;98.10;;;;;;2594260;54;20404;-59
2021/08/21 12:14:15;;;;;;;16.80;15.90;;;23.80;98.00;;;;;;2596653;54;20417;-59
2021/08/21 12:16:44;;;;;;;17.73;16.80;;;23.90;98.10;;;;;;2594397;39;20755;-58
2021/08/21 12:19:14;;;;;;;18.43;17.27;;;23.80;98.00;;;;;;2591508;54;20406;-57
2021/08/21 12:21:44;;;;;;;17.43;16.53;;;23.90;98.10;;;;;;2594879;54;20402;-59
2021/08/21 12:24:14;;;;;;;17.23;16.33;;;23.90;98.10;;;;;;2591695;54;20354;-59
2021/08/21 12:26:47;;;;;;;17.30;16.40;;;23.90;98.10;;;;;;2592419;54;20399;-59
2021/08/21 12:29:25;;;;;;;18.10;17.10;;;23.90;98.10;;;;;;2590514;39;20748;-56
2021/08/21 12:31:56;;;;;;;18.73;17.63;;;23.90;98.10;;;;;;2593263;54;20790;-59
2021/08/21 12:34:27;;;;;;;18.77;17.57;;;23.80;98.00;;;;;;2595812;54;20395;-57
2021/08/21 12:36:59;;;;;;;18.10;17.10;;;23.90;98.10;;;;;;2595190;54;20772;-59
2021/08/21 12:39:30;;;;;;;18.57;17.50;;;23.90;98.10;;;;;;2595988;54;20407;-59
2021/08/21 12:42:05;;;;;;;17.60;16.70;;;23.90;98.10;;;;;;2593339;54;20521;-57
2021/08/21 12:44:38;;;;;;;18.40;17.40;;;23.90;98.10;;;;;;2594023;47;20410;-59
2021/08/21 12:47:09;;;;;;;17.00;16.10;;;23.90;98.10;;;;;;2594404;54;20771;-59
2021/08/21 12:49:40;;;;;;;17.57;16.43;;;23.80;98.00;;;;;;2595890;39;20686;-56
2021/08/21 12:52:11;;;;;;;18.10;16.90;;;23.90;98.10;;;;;;2595702;39;20873;-59
2021/08/21 12:54:42;;;;;;;18.27;17.17;;;23.90;98.10;;;;;;2595360;39;20629;-59
2021/08/21 12:57:18;;;;;;;17.70;16.80;;;23.90;98.10;;;;;;2595925;39;20756;-58
2021/08/21 12:59:49;;;;;;;17.30;16.30;;;23.90;98.10;;;;;;2597295;54;21089;-58